createdAt,value
2019-04-27T00:02:26.538Z,12.73
2019-04-27T00:04:59.881Z,13.50
2019-04-27T00:07:35.650Z,13.83
2019-04-27T00:10:28.621Z,11.97
2019-04-27T00:12:57.193Z,11.83
2019-04-27T00:15:44.208Z,11.93
2019-04-27T00:18:30.148Z,11.87
2019-04-27T00:21:15.263Z,12.93
2019-04-27T00:23:44.565Z,11.73
2019-04-27T00:26:13.140Z,11.03
2019-04-27T00:28:41.223Z,11.50
2019-04-27T00:31:09.327Z,10.73
2019-04-27T00:33:37.857Z,10.53
2019-04-27T00:36:13.458Z,10.10
2019-04-27T00:39:10.015Z,10.97
2019-04-27T00:41:38.386Z,11.23
2019-04-27T00:44:06.666Z,11.07
2019-04-27T00:46:34.929Z,10.50
2019-04-27T00:49:03.703Z,10.80
2019-04-27T00:51:33.357Z,11.47
2019-04-27T00:54:01.677Z,11.47
2019-04-27T00:56:57.957Z,11.30
2019-04-27T00:59:43.145Z,11.37
2019-04-27T01:02:30.893Z,10.70
2019-04-27T01:04:59.154Z,12.20
2019-04-27T01:07:27.353Z,12.07
2019-04-27T01:09:55.748Z,12.07
2019-04-27T01:12:24.342Z,12.50
2019-04-27T01:14:53.511Z,11.87
2019-04-27T01:17:21.786Z,11.63
2019-04-27T01:19:50.379Z,10.80
2019-04-27T01:22:18.897Z,10.80
2019-04-27T01:24:47.180Z,10.13
2019-04-27T01:27:49.616Z,11.43
2019-04-27T01:30:30.283Z,9.70
2019-04-27T01:32:59.562Z,9.80
2019-04-27T01:35:28.839Z,10.43
2019-04-27T01:37:58.822Z,9.27
2019-04-27T01:40:26.778Z,9.57
2019-04-27T01:42:54.838Z,9.73
2019-04-27T01:45:22.991Z,9.60
2019-04-27T01:47:51.307Z,9.83
2019-04-27T01:50:19.502Z,9.00
2019-04-27T01:52:48.672Z,9.83
2019-04-27T01:55:18.724Z,9.57
2019-04-27T01:57:48.654Z,9.30
2019-04-27T02:00:51.426Z,9.50
2019-04-27T02:03:22.780Z,9.80
2019-04-27T02:05:54.291Z,9.47
2019-04-27T02:08:22.475Z,9.70
2019-04-27T02:10:50.640Z,10.07
2019-04-27T02:13:19.059Z,10.00
2019-04-27T02:15:48.663Z,10.40
2019-04-27T02:18:17.043Z,10.13
2019-04-27T02:20:45.069Z,11.13
2019-04-27T02:23:13.361Z,11.47
2019-04-27T02:25:41.461Z,11.20
2019-04-27T02:28:40.839Z,12.20
2019-04-27T02:31:43.623Z,11.80
2019-04-27T02:34:19.928Z,12.20
2019-04-27T02:36:50.256Z,12.73
2019-04-27T02:39:19.715Z,12.13
2019-04-27T02:41:51.770Z,11.40
2019-04-27T02:44:29.942Z,11.97
2019-04-27T02:47:00.144Z,13.53
2019-04-27T02:49:30.354Z,12.90
2019-04-27T02:52:09.668Z,13.33
2019-04-27T02:54:40.026Z,13.63
2019-04-27T02:57:10.068Z,14.90
2019-04-27T02:59:39.952Z,15.00
2019-04-27T03:02:26.495Z,13.57
2019-04-27T03:04:55.107Z,14.63
2019-04-27T03:07:24.210Z,14.93
2019-04-27T03:09:52.976Z,15.60
2019-04-27T03:12:23.365Z,14.90
2019-04-27T03:15:13.894Z,16.33
2019-04-27T03:18:04.217Z,16.23
2019-04-27T03:20:40.268Z,16.23
2019-04-27T03:23:09.997Z,16.23
2019-04-27T03:26:03.913Z,16.00
2019-04-27T03:28:32.669Z,15.47
2019-04-27T03:31:02.599Z,16.07
2019-04-27T03:33:32.782Z,16.70
2019-04-27T03:36:03.570Z,15.80
2019-04-27T03:38:32.004Z,16.63
2019-04-27T03:41:00.756Z,16.70
2019-04-27T03:43:30.217Z,17.50
2019-04-27T03:46:00.515Z,17.43
2019-04-27T03:48:29.747Z,18.60
2019-04-27T03:51:10.166Z,18.67
2019-04-27T03:53:50.443Z,18.50
2019-04-27T03:56:44.008Z,18.93
2019-04-27T03:59:20.527Z,19.67
2019-04-27T04:01:50.614Z,20.33
2019-04-27T04:04:19.611Z,21.30
2019-04-27T04:06:49.492Z,21.07
2019-04-27T04:09:20.017Z,21.60
2019-04-27T04:12:05.902Z,21.10
2019-04-27T04:14:36.732Z,22.07
2019-04-27T04:17:09.913Z,21.20
2019-04-27T04:19:51.039Z,21.53
2019-04-27T04:22:10.260Z,20.40
2019-04-27T04:24:39.705Z,21.93
2019-04-27T04:27:09.940Z,22.07
2019-04-27T04:29:39.431Z,21.97
2019-04-27T04:32:10.448Z,22.23
2019-04-27T04:34:39.926Z,26.10
2019-04-27T04:37:09.289Z,24.60
2019-04-27T04:39:40.350Z,23.33
2019-04-27T04:42:19.854Z,22.43
2019-04-27T04:45:16.796Z,23.50
2019-04-27T04:47:53.583Z,22.37
2019-04-27T04:50:22.803Z,22.43
2019-04-27T04:52:51.772Z,22.87
2019-04-27T04:55:20.678Z,22.70
2019-04-27T04:57:49.503Z,23.03
2019-04-27T05:00:19.955Z,22.80
2019-04-27T05:02:49.194Z,23.67
2019-04-27T05:05:19.332Z,22.77
2019-04-27T05:07:48.677Z,24.70
2019-04-27T05:10:18.847Z,30.07
2019-04-27T05:12:48.608Z,23.53
2019-04-27T05:15:19.053Z,24.43
2019-04-27T05:17:50.789Z,24.17
2019-04-27T05:20:40.861Z,24.10
2019-04-27T05:23:09.768Z,23.90
2019-04-27T05:25:39.057Z,23.53
2019-04-27T05:28:09.567Z,24.63
2019-04-27T05:30:39.102Z,24.90
2019-04-27T05:33:08.900Z,25.03
2019-04-27T05:35:38.738Z,23.20
2019-04-27T05:38:12.796Z,22.47
2019-04-27T05:40:39.878Z,23.60
2019-04-27T05:43:10.083Z,23.03
2019-04-27T05:46:19.018Z,23.13
2019-04-27T05:48:48.881Z,22.67
2019-04-27T05:51:19.644Z,22.57
2019-04-27T05:53:49.540Z,22.77
2019-04-27T05:56:19.303Z,24.10
2019-04-27T05:58:51.279Z,21.70
2019-04-27T06:01:19.765Z,24.30
2019-04-27T06:03:49.796Z,22.87
2019-04-27T06:06:19.733Z,22.50
2019-04-27T06:08:49.483Z,23.30
2019-04-27T06:11:19.645Z,22.53
2019-04-27T06:13:49.222Z,22.33
2019-04-27T06:16:19.348Z,20.37
2019-04-27T06:18:49.313Z,20.50
2019-04-27T06:21:19.666Z,21.63
2019-04-27T06:23:48.778Z,20.67
2019-04-27T06:26:17.386Z,21.50
2019-04-27T06:28:45.915Z,21.47
2019-04-27T06:31:14.411Z,22.00
2019-04-27T06:33:43.181Z,23.33
2019-04-27T06:36:12.013Z,21.17
2019-04-27T06:38:40.902Z,22.53
2019-04-27T06:41:10.117Z,22.17
2019-04-27T06:43:40.452Z,22.13
2019-04-27T06:46:09.473Z,23.07
2019-04-27T06:48:40.524Z,22.77
2019-04-27T06:51:11.143Z,22.60
2019-04-27T06:53:39.554Z,23.33
2019-04-27T06:56:08.972Z,23.10
2019-04-27T06:58:40.497Z,24.53
2019-04-27T07:01:06.859Z,24.90
2019-04-27T07:03:34.887Z,24.00
2019-04-27T07:06:02.922Z,23.60
2019-04-27T07:08:30.954Z,24.77
2019-04-27T07:10:59.139Z,24.03
2019-04-27T07:13:29.116Z,23.30
2019-04-27T07:15:57.363Z,24.03
2019-04-27T07:18:25.419Z,23.87
2019-04-27T07:20:53.988Z,24.07
2019-04-27T07:23:22.072Z,25.70
2019-04-27T07:25:50.079Z,24.87
2019-04-27T07:28:19.041Z,24.90
2019-04-27T07:30:48.769Z,24.30
2019-04-27T07:33:18.506Z,25.87
2019-04-27T07:35:46.806Z,26.70
2019-04-27T07:38:14.882Z,27.37
2019-04-27T07:40:43.080Z,27.93
2019-04-27T07:43:26.203Z,27.97
2019-04-27T07:45:54.318Z,29.20
2019-04-27T07:48:22.436Z,26.83
2019-04-27T07:50:50.491Z,31.67
2019-04-27T07:53:19.341Z,28.03
2019-04-27T07:55:47.421Z,29.47
2019-04-27T07:58:15.502Z,30.17
2019-04-27T08:00:43.837Z,30.47
2019-04-27T08:03:11.926Z,29.73
2019-04-27T08:05:41.059Z,32.60
2019-04-27T08:08:09.105Z,31.20
2019-04-27T08:10:39.078Z,29.83
2019-04-27T08:13:06.965Z,30.73
2019-04-27T08:15:35.018Z,30.63
2019-04-27T08:18:03.097Z,30.00
2019-04-27T08:20:32.125Z,30.23
2019-04-27T08:23:01.372Z,29.40
2019-04-27T08:25:30.765Z,29.63
2019-04-27T08:28:08.544Z,28.63
2019-04-27T08:30:43.160Z,29.43
2019-04-27T08:33:11.247Z,29.80
2019-04-27T08:35:40.669Z,29.23
2019-04-27T08:38:09.109Z,29.57
2019-04-27T08:40:39.217Z,30.13
2019-04-27T08:43:09.070Z,28.37
2019-04-27T08:45:36.854Z,30.40
2019-04-27T08:48:04.971Z,30.33
2019-04-27T08:50:33.042Z,27.13
2019-04-27T08:53:01.143Z,29.13
2019-04-27T08:55:29.482Z,29.53
2019-04-27T08:57:58.722Z,28.63
2019-04-27T09:00:26.951Z,27.63
2019-04-27T09:02:55.036Z,27.23
2019-04-27T09:05:26.215Z,29.23
2019-04-27T09:08:18.782Z,27.07
2019-04-27T09:11:01.176Z,31.60
2019-04-27T09:13:39.408Z,26.13
2019-04-27T09:16:25.089Z,30.70
2019-04-27T09:18:55.658Z,26.97
2019-04-27T09:21:23.853Z,26.63
2019-04-27T09:23:51.919Z,29.97
2019-04-27T09:26:20.001Z,31.23
2019-04-27T09:28:49.274Z,29.30
2019-04-27T09:31:17.468Z,27.03
2019-04-27T09:33:45.573Z,29.10
2019-04-27T09:36:13.624Z,27.27
2019-04-27T09:38:41.694Z,27.67
2019-04-27T09:41:09.778Z,27.13
2019-04-27T09:43:37.830Z,25.73
2019-04-27T09:46:05.957Z,24.87
2019-04-27T09:48:34.127Z,26.07
2019-04-27T09:51:02.171Z,25.30
2019-04-27T09:53:30.299Z,23.77
2019-04-27T09:55:58.340Z,24.80
2019-04-27T09:58:26.531Z,22.67
2019-04-27T10:00:56.698Z,23.87
2019-04-27T10:03:28.036Z,22.43
2019-04-27T10:06:01.900Z,23.70
2019-04-27T10:08:45.033Z,22.43
2019-04-27T10:11:16.281Z,24.10
2019-04-27T10:13:52.805Z,21.87
2019-04-27T10:16:21.998Z,22.57
2019-04-27T10:18:51.428Z,21.57
2019-04-27T10:21:20.732Z,20.33
2019-04-27T10:23:50.552Z,21.50
2019-04-27T10:26:18.691Z,21.43
2019-04-27T10:28:47.274Z,22.33
2019-04-27T10:31:15.918Z,20.07
2019-04-27T10:33:45.864Z,21.70
2019-04-27T10:36:14.108Z,17.80
2019-04-27T10:38:42.211Z,18.30
2019-04-27T10:41:11.325Z,17.83
2019-04-27T10:43:39.367Z,17.73
2019-04-27T10:46:07.452Z,16.53
2019-04-27T10:48:37.523Z,18.17
2019-04-27T10:51:07.290Z,15.43
2019-04-27T10:53:35.935Z,15.73
2019-04-27T10:56:05.417Z,17.23
2019-04-27T10:58:33.468Z,17.03
2019-04-27T11:01:05.561Z,14.47
2019-04-27T11:03:51.601Z,14.97
2019-04-27T11:06:32.770Z,13.27
2019-04-27T11:09:00.833Z,14.13
2019-04-27T11:11:28.939Z,14.10
2019-04-27T11:14:00.719Z,14.57
2019-04-27T11:16:26.826Z,11.60
2019-04-27T11:18:56.441Z,11.20
2019-04-27T11:21:26.173Z,12.13
2019-04-27T11:23:55.949Z,12.47
2019-04-27T11:26:24.163Z,12.37
2019-04-27T11:28:52.694Z,12.00
2019-04-27T11:31:21.536Z,10.00
2019-04-27T11:33:50.242Z,10.60
2019-04-27T11:36:39.465Z,10.30
2019-04-27T11:39:12.095Z,9.97
2019-04-27T11:41:40.654Z,9.83
2019-04-27T11:44:08.683Z,8.50
2019-04-27T11:46:36.738Z,8.40
2019-04-27T11:49:06.679Z,7.77
2019-04-27T11:51:36.612Z,7.90
2019-04-27T11:54:07.901Z,8.97
2019-04-27T11:56:36.327Z,7.70
2019-04-27T11:59:08.469Z,7.90
2019-04-27T12:01:37.518Z,7.43
2019-04-27T12:04:10.272Z,6.20
2019-04-27T12:06:39.235Z,5.53
2019-04-27T12:09:08.532Z,6.27
2019-04-27T12:11:37.641Z,5.33
2019-04-27T12:14:07.927Z,5.03
2019-04-27T12:16:36.931Z,5.83
2019-04-27T12:19:06.574Z,5.60
2019-04-27T12:21:36.201Z,6.20
2019-04-27T12:24:05.108Z,5.50
2019-04-27T12:26:40.041Z,5.77
2019-04-27T12:29:09.785Z,4.77
2019-04-27T12:31:42.934Z,5.03
2019-04-27T12:34:10.009Z,4.63
2019-04-27T12:36:38.032Z,3.77
2019-04-27T12:39:09.984Z,4.40
2019-04-27T12:41:37.997Z,3.87
2019-04-27T12:44:07.158Z,3.73
2019-04-27T12:46:35.514Z,3.77
2019-04-27T12:49:03.669Z,3.17
2019-04-27T12:51:31.761Z,3.90
2019-04-27T12:54:26.197Z,3.27
2019-04-27T12:57:13.305Z,3.43
2019-04-27T12:59:59.170Z,3.33
2019-04-27T13:02:29.913Z,4.27
2019-04-27T13:04:57.980Z,4.53
2019-04-27T13:07:26.099Z,4.20
2019-04-27T13:09:54.139Z,4.20
2019-04-27T13:12:22.226Z,3.97
2019-04-27T13:14:50.302Z,4.97
2019-04-27T13:17:18.408Z,4.73
2019-04-27T13:19:46.415Z,4.17
2019-04-27T13:22:14.456Z,4.47
2019-04-27T13:24:45.902Z,5.70
2019-04-27T13:27:14.134Z,5.87
2019-04-27T13:29:42.221Z,5.80
2019-04-27T13:32:10.246Z,6.57
2019-04-27T13:34:38.371Z,6.20
2019-04-27T13:37:26.267Z,8.07
2019-04-27T13:40:04.731Z,6.60
2019-04-27T13:42:25.793Z,5.60
2019-04-27T13:44:55.701Z,6.43
2019-04-27T13:47:30.830Z,6.30
2019-04-27T13:50:06.720Z,5.67
2019-04-27T13:52:36.215Z,5.17
2019-04-27T13:55:05.775Z,4.50
2019-04-27T13:57:34.016Z,5.30
2019-04-27T14:00:02.116Z,5.23
2019-04-27T14:02:32.321Z,5.73
2019-04-27T14:04:59.896Z,5.07
2019-04-27T14:07:28.325Z,9.13
2019-04-27T14:09:56.361Z,5.70
2019-04-27T14:12:24.458Z,5.73
2019-04-27T14:14:52.559Z,6.03
2019-04-27T14:17:20.672Z,5.70
2019-04-27T14:19:48.713Z,5.23
2019-04-27T14:22:18.199Z,4.77
2019-04-27T14:24:46.393Z,4.85
2019-04-27T14:27:14.919Z,5.93
2019-04-27T14:29:42.961Z,7.10
2019-04-27T14:32:11.086Z,5.53
2019-04-27T14:34:39.151Z,5.27
2019-04-27T14:37:08.671Z,5.93
2019-04-27T14:39:36.826Z,3.83
2019-04-27T14:42:04.915Z,3.70
2019-04-27T14:44:32.957Z,4.17
2019-04-27T14:47:00.989Z,4.27
2019-04-27T14:49:29.106Z,3.87
2019-04-27T14:51:58.525Z,3.30
2019-04-27T14:54:26.603Z,4.10
2019-04-27T14:56:56.417Z,3.30
2019-04-27T14:59:24.425Z,3.70
2019-04-27T15:01:52.522Z,3.63
2019-04-27T15:04:20.567Z,3.50
2019-04-27T15:06:48.587Z,3.90
2019-04-27T15:09:18.049Z,4.03
2019-04-27T15:11:49.235Z,3.50
2019-04-27T15:14:16.303Z,4.00
2019-04-27T15:16:47.173Z,3.53
2019-04-27T15:19:20.425Z,3.37
2019-04-27T15:21:56.505Z,3.67
2019-04-27T15:24:18.117Z,2.97
2019-04-27T15:26:46.211Z,3.10
2019-04-27T15:29:15.673Z,3.27
2019-04-27T15:31:48.851Z,3.30
2019-04-27T15:34:35.695Z,3.60
2019-04-27T15:37:35.419Z,3.70
2019-04-27T15:40:28.986Z,3.40
2019-04-27T15:43:00.566Z,3.30
2019-04-27T15:45:28.691Z,2.63
2019-04-27T15:47:58.270Z,3.27
2019-04-27T15:50:30.323Z,3.53
2019-04-27T15:52:56.207Z,3.13
2019-04-27T15:55:34.411Z,3.40
2019-04-27T15:57:54.169Z,3.40
2019-04-27T16:00:28.681Z,3.53
2019-04-27T16:02:56.961Z,3.77
2019-04-27T16:05:29.785Z,3.37
2019-04-27T16:07:54.743Z,4.23
2019-04-27T16:10:22.849Z,4.00
2019-04-27T16:13:06.038Z,4.40
2019-04-27T16:15:20.626Z,5.50
2019-04-27T16:17:53.454Z,4.43
2019-04-27T16:20:29.264Z,5.07
2019-04-27T16:22:51.263Z,5.20
2019-04-27T16:25:19.479Z,5.17
2019-04-27T16:27:48.978Z,5.30
2019-04-27T16:30:18.698Z,4.53
2019-04-27T16:32:48.076Z,4.77
2019-04-27T16:35:21.843Z,4.23
2019-04-27T16:38:03.797Z,5.00
2019-04-27T16:40:31.877Z,5.60
2019-04-27T16:42:59.983Z,4.60
2019-04-27T16:45:28.110Z,4.40
2019-04-27T16:47:56.537Z,4.40
2019-04-27T16:50:26.856Z,5.33
2019-04-27T16:52:59.183Z,4.73
2019-04-27T16:55:28.069Z,4.50
2019-04-27T16:57:54.890Z,5.20
2019-04-27T17:00:26.487Z,4.93
2019-04-27T17:02:54.985Z,4.53
2019-04-27T17:05:24.342Z,3.70
2019-04-27T17:07:52.030Z,3.87
2019-04-27T17:10:25.552Z,3.43
2019-04-27T17:12:51.211Z,3.70
2019-04-27T17:15:39.046Z,3.93
2019-04-27T17:18:28.537Z,4.17
2019-04-27T17:21:02.634Z,3.30
2019-04-27T17:23:31.103Z,3.63
2019-04-27T17:26:04.069Z,3.27
2019-04-27T17:28:33.554Z,3.70
2019-04-27T17:31:00.721Z,3.20
2019-04-27T17:33:31.858Z,3.43
2019-04-27T17:36:02.708Z,3.10
2019-04-27T17:38:30.479Z,3.70
2019-04-27T17:40:58.622Z,2.90
2019-04-27T17:43:28.810Z,2.87
2019-04-27T17:45:58.211Z,2.70
2019-04-27T17:48:26.404Z,3.10
2019-04-27T17:50:55.872Z,2.40
2019-04-27T17:53:25.224Z,2.90
2019-04-27T17:55:54.964Z,3.13
2019-04-27T17:58:23.642Z,3.13
2019-04-27T18:00:51.701Z,2.70
2019-04-27T18:03:21.153Z,2.80
2019-04-27T18:05:51.928Z,3.07
2019-04-27T18:08:24.573Z,3.60
2019-04-27T18:10:48.696Z,4.53
2019-04-27T18:13:20.722Z,5.07
2019-04-27T18:15:50.630Z,3.77
2019-04-27T18:18:30.860Z,2.47
2019-04-27T18:20:58.982Z,2.30
2019-04-27T18:23:29.015Z,1.93
2019-04-27T18:26:05.154Z,1.60
2019-04-27T18:28:34.489Z,1.50
2019-04-27T18:31:07.500Z,1.27
2019-04-27T18:33:37.287Z,1.17
2019-04-27T18:36:11.540Z,1.33
2019-04-27T18:38:36.776Z,1.50
2019-04-27T18:41:07.899Z,1.47
2019-04-27T18:43:34.618Z,1.40
2019-04-27T18:46:02.680Z,1.87
2019-04-27T18:48:53.837Z,1.30
2019-04-27T18:51:39.820Z,3.73
2019-04-27T18:54:08.198Z,5.67
2019-04-27T18:56:38.578Z,2.33
2019-04-27T18:59:06.067Z,1.67
2019-04-27T19:01:34.084Z,1.43
2019-04-27T19:04:02.208Z,1.90
2019-04-27T19:06:30.255Z,2.17
2019-04-27T19:08:59.076Z,5.00
2019-04-27T19:11:28.960Z,1.97
2019-04-27T19:13:58.921Z,3.07
2019-04-27T19:16:29.031Z,1.47
2019-04-27T19:18:58.273Z,1.30
2019-04-27T19:21:26.499Z,2.07
2019-04-27T19:23:54.527Z,1.80
2019-04-27T19:26:29.134Z,2.50
2019-04-27T19:29:19.385Z,1.90
2019-04-27T19:31:52.105Z,2.27
2019-04-27T19:34:20.279Z,3.60
2019-04-27T19:36:48.821Z,1.93
2019-04-27T19:39:18.280Z,2.50
2019-04-27T19:42:00.028Z,3.63
2019-04-27T19:44:18.542Z,2.50
2019-04-27T19:46:46.579Z,2.87
2019-04-27T19:49:14.659Z,2.30
2019-04-27T19:51:42.949Z,2.63
2019-04-27T19:54:16.134Z,2.90
2019-04-27T19:56:44.529Z,2.90
2019-04-27T19:59:19.010Z,3.30
2019-04-27T20:01:48.163Z,3.40
2019-04-27T20:04:30.786Z,2.40
2019-04-27T20:06:59.141Z,5.57
2019-04-27T20:09:36.792Z,5.47
2019-04-27T20:12:05.665Z,3.73
2019-04-27T20:14:53.804Z,4.97
2019-04-27T20:17:22.403Z,4.10
2019-04-27T20:19:51.585Z,3.23
2019-04-27T20:22:20.866Z,3.83
2019-04-27T20:24:51.815Z,3.50
2019-04-27T20:27:21.201Z,3.60
2019-04-27T20:29:49.601Z,3.53
2019-04-27T20:32:18.655Z,2.73
2019-04-27T20:34:46.690Z,2.80
2019-04-27T20:37:14.807Z,3.20
2019-04-27T20:39:42.972Z,3.10
2019-04-27T20:42:12.607Z,3.07
2019-04-27T20:44:41.332Z,3.40
2019-04-27T20:47:11.137Z,2.80
2019-04-27T20:49:39.159Z,3.03
2019-04-27T20:52:11.546Z,3.50
2019-04-27T20:54:41.339Z,2.50
2019-04-27T20:57:11.355Z,3.00
2019-04-27T20:59:38.975Z,2.30
2019-04-27T21:02:27.875Z,2.60
2019-04-27T21:05:13.652Z,2.47
2019-04-27T21:07:49.182Z,2.20
2019-04-27T21:10:17.246Z,2.83
2019-04-27T21:12:45.315Z,2.80
2019-04-27T21:15:13.379Z,2.67
2019-04-27T21:17:42.559Z,2.37
2019-04-27T21:20:11.395Z,3.33
2019-04-27T21:22:41.653Z,2.57
2019-04-27T21:25:11.896Z,2.70
2019-04-27T21:27:41.052Z,2.30
2019-04-27T21:30:11.237Z,1.90
2019-04-27T21:32:38.931Z,2.00
2019-04-27T21:35:07.797Z,2.87
2019-04-27T21:37:36.057Z,2.63
2019-04-27T21:40:21.307Z,20.73
2019-04-27T21:42:51.128Z,3.30
2019-04-27T21:45:21.593Z,3.00
2019-04-27T21:47:49.183Z,2.63
2019-04-27T21:50:17.294Z,2.80
2019-04-27T21:52:52.847Z,2.40
2019-04-27T21:55:22.012Z,2.90
2019-04-27T21:57:51.291Z,2.57
2019-04-27T22:00:43.879Z,2.47
2019-04-27T22:03:12.093Z,2.67
2019-04-27T22:05:41.650Z,2.67
2019-04-27T22:08:11.700Z,2.63
2019-04-27T22:10:39.751Z,2.60
2019-04-27T22:13:07.846Z,2.97
2019-04-27T22:15:35.889Z,3.77
2019-04-27T22:18:03.956Z,3.23
2019-04-27T22:20:32.399Z,2.67
2019-04-27T22:23:02.902Z,2.87
2019-04-27T22:25:35.671Z,3.00
2019-04-27T22:28:02.981Z,2.53
2019-04-27T22:30:31.465Z,3.10
2019-04-27T22:33:01.449Z,3.10
2019-04-27T22:35:31.304Z,2.90
2019-04-27T22:38:01.804Z,2.63
2019-04-27T22:40:45.179Z,3.00
2019-04-27T22:43:34.010Z,3.00
2019-04-27T22:46:03.262Z,3.00
2019-04-27T22:48:33.112Z,3.33
2019-04-27T22:51:01.669Z,2.87
2019-04-27T22:53:30.650Z,3.20
2019-04-27T22:56:28.223Z,2.77
2019-04-27T22:59:04.766Z,3.47
2019-04-27T23:01:52.476Z,3.07
2019-04-27T23:04:26.053Z,2.93
2019-04-27T23:06:54.535Z,3.10
2019-04-27T23:09:22.996Z,2.90
2019-04-27T23:11:51.745Z,2.73
2019-04-27T23:14:21.206Z,2.53
2019-04-27T23:16:51.836Z,3.27
2019-04-27T23:19:21.010Z,2.93
2019-04-27T23:21:53.050Z,3.20
2019-04-27T23:24:20.909Z,3.03
2019-04-27T23:26:50.307Z,3.07
2019-04-27T23:29:18.672Z,3.30
2019-04-27T23:32:11.685Z,3.53
2019-04-27T23:34:41.521Z,2.97
2019-04-27T23:37:09.747Z,3.03
2019-04-27T23:39:37.837Z,4.23
2019-04-27T23:42:06.937Z,3.13
2019-04-27T23:44:35.081Z,3.27
2019-04-27T23:47:03.168Z,2.80
2019-04-27T23:49:32.385Z,4.20
2019-04-27T23:52:12.308Z,3.77
2019-04-27T23:54:42.721Z,4.60
2019-04-27T23:57:11.725Z,6.37
2019-04-27T23:59:41.536Z,4.70
